createdAt,value
2023-10-26T00:01:37.604Z,4.50
2023-10-26T00:04:04.654Z,3.40
2023-10-26T00:06:31.215Z,5.28
2023-10-26T00:08:57.735Z,5.05
2023-10-26T00:11:24.795Z,6.75
2023-10-26T00:13:51.220Z,6.18
2023-10-26T00:16:17.740Z,6.72
2023-10-26T00:18:44.436Z,7.18
2023-10-26T00:21:11.018Z,7.78
2023-10-26T00:23:37.618Z,6.03
2023-10-26T00:26:04.554Z,6.15
2023-10-26T00:28:31.331Z,6.13
2023-10-26T00:30:57.823Z,7.53
2023-10-26T00:33:24.421Z,7.60
2023-10-26T00:35:53.087Z,8.05
2023-10-26T00:38:19.603Z,7.60
2023-10-26T00:40:46.089Z,8.02
2023-10-26T00:43:24.967Z,10.10
2023-10-26T00:45:52.323Z,8.73
2023-10-26T00:48:20.449Z,8.60
2023-10-26T00:50:48.766Z,10.80
2023-10-26T00:53:18.209Z,9.88
2023-10-26T00:55:48.451Z,10.55
2023-10-26T00:58:17.084Z,7.88
2023-10-26T01:00:44.518Z,9.77
2023-10-26T01:03:12.208Z,8.68
2023-10-26T01:05:38.738Z,7.40
2023-10-26T01:08:05.302Z,9.48
2023-10-26T01:10:33.022Z,8.52
2023-10-26T01:12:59.656Z,8.43
2023-10-26T01:15:26.171Z,7.18
2023-10-26T01:17:52.707Z,8.55
2023-10-26T01:20:20.055Z,7.43
2023-10-26T01:22:46.774Z,10.07
2023-10-26T01:25:13.443Z,10.25
2023-10-26T01:27:39.965Z,9.07
2023-10-26T01:30:07.528Z,10.27
2023-10-26T01:32:37.010Z,9.02
2023-10-26T01:35:03.862Z,11.43
2023-10-26T01:37:30.395Z,8.13
2023-10-26T01:39:56.913Z,9.15
2023-10-26T01:42:23.449Z,9.90
2023-10-26T01:44:50.440Z,8.63
2023-10-26T01:47:17.101Z,12.02
2023-10-26T01:49:44.367Z,9.25
2023-10-26T01:52:10.929Z,11.40
2023-10-26T01:54:37.432Z,11.98
2023-10-26T01:57:04.162Z,9.48
2023-10-26T01:59:31.374Z,13.35
2023-10-26T02:01:57.914Z,13.48
2023-10-26T02:04:24.465Z,13.50
2023-10-26T02:06:51.041Z,12.95
2023-10-26T02:09:17.529Z,12.20
2023-10-26T02:11:44.064Z,13.35
2023-10-26T02:14:10.852Z,13.27
2023-10-26T02:16:37.503Z,14.38
2023-10-26T02:19:04.147Z,17.00
2023-10-26T02:21:30.919Z,13.25
2023-10-26T02:23:57.498Z,14.35
2023-10-26T02:26:24.044Z,15.38
2023-10-26T02:28:50.534Z,15.95
2023-10-26T02:31:17.069Z,13.63
2023-10-26T02:33:43.689Z,13.55
2023-10-26T02:36:10.242Z,14.30
2023-10-26T02:38:36.669Z,16.65
2023-10-26T02:41:04.545Z,15.05
2023-10-26T02:43:31.094Z,13.88
2023-10-26T02:46:02.191Z,13.15
2023-10-26T02:48:28.743Z,14.05
2023-10-26T02:50:55.323Z,13.82
2023-10-26T02:53:21.774Z,17.13
2023-10-26T02:55:48.225Z,13.95
2023-10-26T02:58:14.800Z,12.68
2023-10-26T03:00:41.715Z,15.25
2023-10-26T03:03:08.310Z,11.63
2023-10-26T03:05:35.885Z,11.32
2023-10-26T03:08:03.346Z,13.88
2023-10-26T03:10:31.729Z,11.77
2023-10-26T03:12:58.273Z,12.95
2023-10-26T03:15:24.874Z,11.82
2023-10-26T03:17:51.423Z,15.05
2023-10-26T03:20:17.966Z,12.80
2023-10-26T03:22:44.420Z,11.30
2023-10-26T03:25:10.916Z,11.98
2023-10-26T03:27:37.564Z,11.80
2023-10-26T03:30:06.731Z,11.73
2023-10-26T03:32:33.685Z,11.23
2023-10-26T03:35:00.211Z,12.70
2023-10-26T03:37:26.818Z,12.00
2023-10-26T03:39:53.325Z,13.02
2023-10-26T03:42:20.391Z,11.95
2023-10-26T03:44:46.962Z,13.90
2023-10-26T03:47:14.109Z,10.40
2023-10-26T03:49:40.669Z,13.70
2023-10-26T03:52:07.723Z,12.80
2023-10-26T03:54:34.707Z,12.63
2023-10-26T03:57:01.682Z,11.02
2023-10-26T03:59:28.184Z,9.88
2023-10-26T04:01:54.671Z,11.40
2023-10-26T04:04:21.446Z,11.32
2023-10-26T04:06:47.930Z,12.48
2023-10-26T04:09:14.458Z,14.10
2023-10-26T04:11:41.547Z,14.10
2023-10-26T04:14:07.998Z,13.05
2023-10-26T04:16:34.526Z,13.15
2023-10-26T04:19:01.714Z,14.10
2023-10-26T04:21:28.477Z,14.52
2023-10-26T04:23:54.976Z,13.02
2023-10-26T04:26:21.460Z,17.52
2023-10-26T04:28:52.367Z,14.40
2023-10-26T04:31:22.842Z,13.15
2023-10-26T04:33:49.865Z,15.23
2023-10-26T04:36:17.127Z,15.05
2023-10-26T04:38:43.676Z,14.95
2023-10-26T04:41:10.186Z,13.35
2023-10-26T04:43:37.080Z,14.27
2023-10-26T04:46:04.348Z,13.45
2023-10-26T04:48:31.120Z,16.83
2023-10-26T04:50:57.900Z,16.45
2023-10-26T04:53:24.797Z,16.25
2023-10-26T04:55:51.316Z,14.65
2023-10-26T04:58:17.741Z,14.25
2023-10-26T05:00:44.215Z,13.65
2023-10-26T05:03:11.043Z,14.60
2023-10-26T05:05:37.642Z,15.02
2023-10-26T05:08:04.417Z,17.13
2023-10-26T05:10:30.844Z,15.48
2023-10-26T05:12:57.309Z,15.90
2023-10-26T05:15:24.296Z,15.90
2023-10-26T05:17:50.773Z,17.58
2023-10-26T05:20:17.251Z,14.93
2023-10-26T05:22:43.696Z,14.70
2023-10-26T05:25:10.274Z,15.43
2023-10-26T05:27:37.582Z,16.83
2023-10-26T05:30:06.079Z,16.27
2023-10-26T05:32:32.797Z,15.45
2023-10-26T05:34:59.284Z,15.15
2023-10-26T05:37:25.709Z,17.33
2023-10-26T05:39:52.169Z,13.70
2023-10-26T05:42:18.821Z,14.35
2023-10-26T05:44:45.634Z,14.82
2023-10-26T05:47:12.231Z,15.52
2023-10-26T05:49:38.803Z,13.75
2023-10-26T05:52:05.717Z,14.95
2023-10-26T05:54:32.316Z,15.70
2023-10-26T05:56:58.999Z,14.57
2023-10-26T05:59:25.819Z,15.10
2023-10-26T06:01:52.360Z,17.80
2023-10-26T06:04:19.056Z,15.60
2023-10-26T06:06:45.688Z,16.77
2023-10-26T06:09:12.766Z,17.48
2023-10-26T06:11:39.455Z,16.60
2023-10-26T06:14:05.892Z,16.90
2023-10-26T06:16:32.450Z,17.48
2023-10-26T06:18:59.615Z,15.45
2023-10-26T06:21:26.108Z,16.13
2023-10-26T06:23:52.569Z,15.30
2023-10-26T06:26:19.105Z,16.42
2023-10-26T06:28:45.720Z,14.82
2023-10-26T06:31:13.800Z,16.75
2023-10-26T06:33:40.447Z,17.25
2023-10-26T06:36:11.570Z,16.30
2023-10-26T06:38:39.416Z,15.90
2023-10-26T06:41:10.448Z,18.20
2023-10-26T06:43:38.201Z,17.75
2023-10-26T06:46:05.309Z,17.90
2023-10-26T06:48:31.994Z,17.80
2023-10-26T06:51:01.657Z,16.60
2023-10-26T06:53:28.303Z,16.88
2023-10-26T06:55:54.826Z,17.13
2023-10-26T06:58:21.468Z,15.98
2023-10-26T07:00:52.223Z,14.15
2023-10-26T07:03:20.200Z,14.30
2023-10-26T07:05:46.963Z,17.52
2023-10-26T07:08:13.390Z,15.70
2023-10-26T07:10:40.841Z,16.25
2023-10-26T07:13:09.629Z,13.30
2023-10-26T07:15:36.986Z,12.70
2023-10-26T07:18:04.705Z,13.77
2023-10-26T07:20:31.233Z,10.88
2023-10-26T07:22:57.698Z,12.05
2023-10-26T07:25:26.295Z,10.43
2023-10-26T07:27:52.771Z,12.60
2023-10-26T07:30:19.411Z,9.98
2023-10-26T07:32:46.090Z,10.75
2023-10-26T07:35:13.003Z,12.10
2023-10-26T07:37:39.901Z,12.57
2023-10-26T07:40:28.628Z,16.88
2023-10-26T07:42:54.484Z,15.15
2023-10-26T07:45:21.234Z,14.15
2023-10-26T07:47:47.939Z,13.93
2023-10-26T07:50:14.531Z,16.15
2023-10-26T07:52:40.970Z,12.07
2023-10-26T07:55:08.379Z,13.65
2023-10-26T07:57:35.290Z,12.80
2023-10-26T08:00:01.986Z,8.77
2023-10-26T08:02:30.198Z,9.38
2023-10-26T08:04:57.479Z,8.57
2023-10-26T08:07:24.063Z,7.70
2023-10-26T08:09:50.550Z,11.07
2023-10-26T08:12:17.008Z,11.68
2023-10-26T08:16:11.276Z,8.48
2023-10-26T08:17:33.581Z,10.35
2023-10-26T08:20:01.117Z,10.27
2023-10-26T08:22:30.637Z,11.95
2023-10-26T08:24:57.624Z,12.10
2023-10-26T08:27:24.762Z,12.23
2023-10-26T08:29:51.746Z,12.57
2023-10-26T08:32:18.935Z,12.73
2023-10-26T08:34:45.703Z,16.88
2023-10-26T08:37:13.906Z,14.20
2023-10-26T08:39:42.525Z,12.82
2023-10-26T08:42:09.098Z,13.43
2023-10-26T08:44:39.949Z,12.70
2023-10-26T08:47:07.391Z,9.95
2023-10-26T08:49:34.368Z,10.48
2023-10-26T08:52:01.032Z,13.02
2023-10-26T08:54:29.943Z,8.35
2023-10-26T08:56:56.498Z,6.93
2023-10-26T08:59:23.009Z,8.05
2023-10-26T09:01:50.909Z,9.35
2023-10-26T09:04:17.613Z,8.23
2023-10-26T09:06:51.405Z,6.32
2023-10-26T09:09:19.883Z,5.00
2023-10-26T09:11:49.900Z,8.40
2023-10-26T09:14:22.927Z,5.07
2023-10-26T09:16:50.720Z,4.88
2023-10-26T09:19:20.618Z,6.13
2023-10-26T09:21:53.053Z,4.00
2023-10-26T09:24:29.578Z,2.95
2023-10-26T09:26:59.631Z,4.45
2023-10-26T09:29:55.700Z,4.22
2023-10-26T09:32:32.660Z,6.93
2023-10-26T09:37:28.981Z,4.53
2023-10-26T09:40:08.541Z,5.10
2023-10-26T09:42:42.448Z,4.57
2023-10-26T09:45:09.679Z,5.10
2023-10-26T09:47:37.630Z,6.05
2023-10-26T09:50:05.274Z,2.83
2023-10-26T09:52:32.078Z,5.97
2023-10-26T09:54:59.192Z,4.07
2023-10-26T09:57:31.075Z,7.07
2023-10-26T10:00:00.518Z,4.05
2023-10-26T10:02:27.306Z,4.72
2023-10-26T10:04:54.313Z,6.03
2023-10-26T10:07:47.182Z,4.65
2023-10-26T10:10:14.612Z,4.82
2023-10-26T10:12:41.314Z,4.53
2023-10-26T10:20:17.094Z,4.93
2023-10-26T10:22:48.684Z,5.00
2023-10-26T10:25:19.520Z,5.95
2023-10-26T10:27:49.194Z,4.05
2023-10-26T10:30:20.029Z,4.25
2023-10-26T10:35:25.104Z,3.95
2023-10-26T10:38:10.411Z,5.53
2023-10-26T10:40:36.962Z,4.55
2023-10-26T10:43:04.596Z,5.72
2023-10-26T10:45:33.990Z,3.78
2023-10-26T10:48:05.897Z,4.32
2023-10-26T10:50:32.520Z,4.85
2023-10-26T10:53:01.672Z,4.90
2023-10-26T10:55:30.035Z,4.05
2023-10-26T10:57:56.699Z,3.03
2023-10-26T11:00:27.791Z,3.45
2023-10-26T11:02:54.810Z,2.08
2023-10-26T11:05:21.610Z,3.03
2023-10-26T11:07:48.334Z,5.00
2023-10-26T11:10:14.874Z,3.33
2023-10-26T11:12:50.412Z,5.20
2023-10-26T11:15:17.186Z,5.88
2023-10-26T11:17:44.969Z,4.70
2023-10-26T11:20:43.401Z,4.47
2023-10-26T11:23:12.912Z,6.28
2023-10-26T11:25:40.000Z,5.85
2023-10-26T11:28:07.558Z,7.22
2023-10-26T11:30:52.018Z,7.13
2023-10-26T11:33:37.602Z,5.18
2023-10-26T11:36:11.385Z,5.13
2023-10-26T11:38:51.044Z,5.72
2023-10-26T11:41:28.073Z,5.85
2023-10-26T11:46:32.707Z,7.20
2023-10-26T11:49:00.493Z,7.00
2023-10-26T11:51:27.274Z,6.78
2023-10-26T11:53:53.842Z,6.78
2023-10-26T11:56:20.370Z,7.50
2023-10-26T11:58:46.854Z,7.07
2023-10-26T12:01:13.533Z,7.78
2023-10-26T12:03:44.503Z,7.43
2023-10-26T12:06:11.263Z,7.25
2023-10-26T12:08:38.448Z,5.60
2023-10-26T12:11:04.915Z,8.18
2023-10-26T12:13:35.899Z,9.25
2023-10-26T12:16:03.394Z,5.20
2023-10-26T12:18:29.972Z,5.32
2023-10-26T12:20:56.703Z,5.25
2023-10-26T12:23:23.365Z,5.55
2023-10-26T12:25:49.818Z,6.22
2023-10-26T12:28:22.924Z,4.88
2023-10-26T12:30:50.398Z,5.35
2023-10-26T12:33:17.022Z,6.50
2023-10-26T12:35:43.544Z,4.80
2023-10-26T12:38:10.140Z,7.03
2023-10-26T12:40:36.646Z,6.88
2023-10-26T12:43:03.212Z,4.63
2023-10-26T12:45:29.711Z,4.10
2023-10-26T12:47:56.316Z,6.57
2023-10-26T12:50:22.873Z,5.43
2023-10-26T12:52:49.334Z,5.07
2023-10-26T12:55:16.478Z,5.50
2023-10-26T12:57:43.042Z,5.38
2023-10-26T13:00:09.942Z,4.10
2023-10-26T13:02:36.667Z,6.30
2023-10-26T13:05:03.246Z,4.20
2023-10-26T13:07:29.686Z,5.65
2023-10-26T13:09:56.240Z,4.35
2023-10-26T13:12:22.700Z,4.75
2023-10-26T13:14:50.232Z,5.47
2023-10-26T13:17:23.361Z,5.18
2023-10-26T13:19:49.989Z,4.43
2023-10-26T13:22:16.485Z,4.40
2023-10-26T13:24:43.203Z,6.60
2023-10-26T13:27:09.918Z,3.58
2023-10-26T13:29:36.443Z,4.13
2023-10-26T13:32:03.019Z,6.57
2023-10-26T13:34:29.584Z,5.38
2023-10-26T13:36:56.095Z,4.32
2023-10-26T13:39:22.571Z,4.97
2023-10-26T13:41:49.532Z,6.13
2023-10-26T13:44:16.016Z,5.57
2023-10-26T13:46:42.502Z,4.60
2023-10-26T13:49:19.977Z,5.25
2023-10-26T13:51:46.536Z,4.88
2023-10-26T13:54:13.185Z,6.60
2023-10-26T13:56:39.791Z,3.47
2023-10-26T13:59:06.370Z,3.25
2023-10-26T14:01:33.317Z,4.63
2023-10-26T14:04:00.395Z,4.53
2023-10-26T14:06:27.200Z,5.43
2023-10-26T14:08:53.997Z,4.63
2023-10-26T14:11:20.455Z,4.32
2023-10-26T14:13:46.931Z,4.25
2023-10-26T14:16:13.519Z,5.22
2023-10-26T14:18:40.085Z,4.35
2023-10-26T14:21:06.795Z,6.15
2023-10-26T14:23:33.714Z,5.57
2023-10-26T14:26:00.220Z,4.90
2023-10-26T14:28:26.818Z,6.70
2023-10-26T14:30:53.399Z,7.35
2023-10-26T14:33:19.877Z,5.07
2023-10-26T14:35:52.550Z,5.03
2023-10-26T14:38:22.180Z,5.75
2023-10-26T14:40:56.388Z,7.50
2023-10-26T14:43:24.095Z,6.05
2023-10-26T14:45:51.591Z,5.40
2023-10-26T14:48:18.799Z,5.75
2023-10-26T14:50:45.826Z,5.13
2023-10-26T14:53:13.323Z,4.75
2023-10-26T14:55:42.821Z,8.02
2023-10-26T14:58:09.731Z,6.07
2023-10-26T15:00:37.714Z,5.30
2023-10-26T15:03:07.991Z,4.95
2023-10-26T15:05:35.161Z,5.47
2023-10-26T15:08:02.188Z,7.15
2023-10-26T15:10:33.552Z,4.70
2023-10-26T15:13:03.102Z,6.28
2023-10-26T15:15:29.580Z,5.38
2023-10-26T15:17:56.278Z,5.45
2023-10-26T15:20:22.864Z,5.28
2023-10-26T15:22:49.329Z,6.90
2023-10-26T15:25:15.978Z,6.00
2023-10-26T15:27:42.471Z,4.97
2023-10-26T15:30:09.628Z,8.48
2023-10-26T15:32:38.754Z,5.57
2023-10-26T15:35:05.745Z,5.25
2023-10-26T15:37:32.183Z,5.65
2023-10-26T15:39:58.853Z,5.85
2023-10-26T15:42:25.362Z,9.05
2023-10-26T15:44:52.169Z,8.80
2023-10-26T15:47:20.512Z,7.93
2023-10-26T15:49:48.173Z,9.80
2023-10-26T15:52:15.807Z,6.05
2023-10-26T15:54:42.672Z,7.15
2023-10-26T15:57:09.502Z,7.63
2023-10-26T15:59:35.960Z,5.53
2023-10-26T16:02:02.987Z,6.72
2023-10-26T16:04:29.460Z,6.07
2023-10-26T16:06:56.333Z,9.20
2023-10-26T16:09:22.882Z,8.18
2023-10-26T16:11:49.484Z,11.77
2023-10-26T16:14:16.129Z,6.45
2023-10-26T16:16:42.684Z,7.43
2023-10-26T16:19:09.255Z,5.80
2023-10-26T16:21:36.034Z,11.68
2023-10-26T16:24:02.683Z,7.35
2023-10-26T16:26:36.446Z,10.95
2023-10-26T16:29:03.111Z,12.10
2023-10-26T16:31:30.097Z,9.23
2023-10-26T16:33:57.698Z,8.82
2023-10-26T16:36:24.220Z,12.23
2023-10-26T16:38:50.863Z,9.20
2023-10-26T16:41:17.362Z,14.05
2023-10-26T16:43:43.815Z,7.70
2023-10-26T16:46:12.879Z,6.30
2023-10-26T16:48:40.729Z,6.72
2023-10-26T16:51:07.232Z,5.75
2023-10-26T16:53:33.740Z,8.57
2023-10-26T16:56:01.788Z,5.68
2023-10-26T16:58:29.090Z,6.10
2023-10-26T17:00:59.069Z,5.97
2023-10-26T17:03:26.701Z,4.78
2023-10-26T17:05:53.244Z,5.93
2023-10-26T17:08:22.715Z,5.70
2023-10-26T17:10:49.724Z,5.70
2023-10-26T17:13:16.946Z,6.25
2023-10-26T17:15:45.162Z,6.90
2023-10-26T17:18:11.744Z,6.28
2023-10-26T17:20:38.478Z,5.57
2023-10-26T17:23:05.405Z,5.70
2023-10-26T17:25:36.142Z,12.30
2023-10-26T17:28:03.084Z,6.25
2023-10-26T17:30:30.379Z,5.72
2023-10-26T17:32:57.232Z,7.78
2023-10-26T17:35:24.046Z,7.68
2023-10-26T17:37:50.524Z,7.63
2023-10-26T17:40:17.233Z,10.27
2023-10-26T17:42:43.724Z,7.85
2023-10-26T17:45:10.665Z,8.90
2023-10-26T17:47:37.244Z,7.03
2023-10-26T17:50:03.996Z,7.72
2023-10-26T17:52:30.532Z,7.82
2023-10-26T17:54:57.018Z,8.63
2023-10-26T17:57:23.590Z,8.57
2023-10-26T17:59:50.095Z,9.85
2023-10-26T18:02:16.559Z,24.10
2023-10-26T18:04:43.008Z,20.40
2023-10-26T18:07:09.523Z,14.30
2023-10-26T18:09:36.062Z,15.13
2023-10-26T18:12:02.648Z,13.65
2023-10-26T18:14:31.808Z,10.15
2023-10-26T18:16:58.410Z,11.32
2023-10-26T18:19:25.042Z,8.85
2023-10-26T18:21:52.059Z,9.52
2023-10-26T18:24:18.948Z,18.38
2023-10-26T18:26:45.451Z,17.02
2023-10-26T18:29:12.526Z,31.58
2023-10-26T18:31:39.184Z,21.05
2023-10-26T18:34:05.881Z,10.60
2023-10-26T18:36:32.412Z,9.23
2023-10-26T18:38:59.089Z,10.40
2023-10-26T18:41:26.512Z,13.00
2023-10-26T18:43:54.095Z,9.68
2023-10-26T18:46:20.772Z,10.10
2023-10-26T18:48:47.487Z,12.02
2023-10-26T18:51:14.400Z,11.05
2023-10-26T18:53:41.584Z,11.05
2023-10-26T18:56:15.615Z,13.35
2023-10-26T18:58:42.532Z,13.27
2023-10-26T19:01:09.354Z,14.98
2023-10-26T19:03:43.112Z,14.30
2023-10-26T19:06:20.189Z,17.60
2023-10-26T19:08:46.824Z,12.15
2023-10-26T19:11:13.564Z,59.58
2023-10-26T19:13:40.514Z,38.15
2023-10-26T19:16:07.243Z,73.15
2023-10-26T19:18:34.430Z,54.58
2023-10-26T19:21:00.979Z,29.80
2023-10-26T19:23:27.528Z,11.63
2023-10-26T19:25:54.098Z,9.32
2023-10-26T19:28:20.634Z,10.00
2023-10-26T19:30:47.216Z,9.80
2023-10-26T19:33:14.325Z,9.77
2023-10-26T19:35:41.284Z,10.07
2023-10-26T19:38:07.862Z,10.30
2023-10-26T19:40:34.459Z,9.38
2023-10-26T19:43:01.018Z,8.63
2023-10-26T19:45:27.511Z,8.55
2023-10-26T19:47:54.273Z,8.55
2023-10-26T19:50:22.347Z,7.63
2023-10-26T19:52:50.095Z,12.95
2023-10-26T19:55:17.271Z,14.43
2023-10-26T19:57:44.190Z,43.75
2023-10-26T20:00:11.385Z,75.60
2023-10-26T20:02:40.827Z,8.35
2023-10-26T20:05:07.829Z,70.45
2023-10-26T20:07:34.715Z,39.80
2023-10-26T20:10:01.381Z,19.77
2023-10-26T20:12:27.966Z,13.85
2023-10-26T20:14:54.436Z,11.10
2023-10-26T20:17:21.167Z,10.68
2023-10-26T20:19:48.113Z,12.40
2023-10-26T20:22:15.309Z,12.57
2023-10-26T20:24:41.843Z,20.65
2023-10-26T20:27:08.435Z,10.82
2023-10-26T20:29:34.997Z,12.85
2023-10-26T20:32:01.602Z,11.70
2023-10-26T20:34:28.098Z,12.18
2023-10-26T20:36:54.981Z,9.27
2023-10-26T20:39:21.503Z,9.77
2023-10-26T20:41:47.985Z,11.05
2023-10-26T20:44:14.788Z,10.45
2023-10-26T20:46:41.616Z,8.32
2023-10-26T20:49:08.246Z,9.98
2023-10-26T20:51:34.971Z,8.23
2023-10-26T20:54:05.102Z,9.02
2023-10-26T20:56:31.643Z,5.63
2023-10-26T20:58:58.081Z,7.90
2023-10-26T21:01:24.549Z,8.13
2023-10-26T21:03:51.088Z,6.43
2023-10-26T21:06:17.553Z,6.57
2023-10-26T21:08:44.693Z,6.03
2023-10-26T21:11:16.294Z,7.10
2023-10-26T21:13:42.997Z,6.72
2023-10-26T21:16:09.782Z,8.80
2023-10-26T21:18:36.723Z,6.75
2023-10-26T21:21:07.866Z,9.68
2023-10-26T21:23:36.012Z,7.47
2023-10-26T21:26:09.800Z,9.35
2023-10-26T21:28:36.953Z,8.90
2023-10-26T21:31:03.617Z,12.10
2023-10-26T21:33:30.224Z,7.05
2023-10-26T21:35:56.883Z,11.43
2023-10-26T21:38:23.492Z,8.85
2023-10-26T21:40:50.137Z,8.02
2023-10-26T21:43:16.937Z,10.77
2023-10-26T21:45:43.808Z,6.78
2023-10-26T21:48:10.893Z,10.18
2023-10-26T21:50:37.426Z,7.97
2023-10-26T21:53:03.863Z,6.25
2023-10-26T21:55:30.342Z,9.32
2023-10-26T21:57:57.005Z,10.90
2023-10-26T22:00:23.497Z,5.43
2023-10-26T22:02:49.979Z,16.98
2023-10-26T22:05:16.574Z,6.93
2023-10-26T22:07:45.527Z,8.75
2023-10-26T22:10:12.101Z,6.90
2023-10-26T22:12:38.672Z,8.43
2023-10-26T22:15:06.048Z,9.55
2023-10-26T22:17:32.573Z,7.70
2023-10-26T22:19:59.206Z,6.30
2023-10-26T22:22:25.700Z,6.90
2023-10-26T22:24:52.596Z,6.72
2023-10-26T22:27:19.149Z,9.02
2023-10-26T22:29:46.019Z,9.13
2023-10-26T22:32:13.298Z,9.25
2023-10-26T22:34:39.932Z,10.35
2023-10-26T22:37:06.519Z,12.52
2023-10-26T22:39:32.959Z,5.95
2023-10-26T22:41:59.474Z,10.32
2023-10-26T22:44:26.007Z,11.27
2023-10-26T22:46:52.522Z,8.95
2023-10-26T22:49:19.132Z,11.40
2023-10-26T22:51:45.819Z,6.95
2023-10-26T22:54:12.398Z,9.65
2023-10-26T22:56:39.117Z,7.45
2023-10-26T22:59:05.812Z,18.67
2023-10-26T23:01:32.227Z,11.55
2023-10-26T23:03:58.750Z,12.43
2023-10-26T23:06:25.415Z,14.27
2023-10-26T23:08:51.939Z,6.72
2023-10-26T23:11:18.379Z,7.50
2023-10-26T23:13:44.861Z,12.55
2023-10-26T23:16:11.482Z,5.13
2023-10-26T23:18:38.121Z,9.50
2023-10-26T23:21:04.970Z,9.23
2023-10-26T23:23:31.668Z,6.18
2023-10-26T23:25:58.449Z,10.00
2023-10-26T23:28:25.060Z,9.80
2023-10-26T23:30:51.527Z,6.97
2023-10-26T23:33:17.992Z,7.00
2023-10-26T23:35:44.610Z,7.88
2023-10-26T23:38:11.357Z,9.85
2023-10-26T23:40:37.867Z,6.97
2023-10-26T23:43:04.656Z,6.88
2023-10-26T23:45:31.152Z,9.45
2023-10-26T23:47:57.819Z,5.82
2023-10-26T23:50:24.275Z,10.23
2023-10-26T23:52:50.721Z,7.47
2023-10-26T23:55:17.281Z,11.48
2023-10-26T23:57:43.864Z,5.13
